KGDV/GDV METAR and TAF weather

Enter ICAO airport designator
Station Type Date Time Source
KGDV METAR 2020/01/19 13:56 UTC NOAA

KGDV 191356Z AUTO 00000KT 10SM OVC065 M21/M24 A3050 RMK AO2 SLP406 T12061244 FZRANO


Station Type Date Time Source
KGDV Decoded METAR 2020/01/19 13:56 UTC NOAA

Glendive, Dawson Community Airport, MT, United States (KGDV) 47-08N 104-48W
Jan 19, 2020 - 08:56 AM EST / 2020.01.19 1356 UTC
Wind: Calm:0
Visibility: 10 mile(s):0
Sky conditions: overcast
Temperature: -5.1 F (-20.6 C)
Dew Point: -11.9 F (-24.4 C)
Relative Humidity: 71%
Pressure (altimeter): 30.5 in. Hg (1032 hPa)
ob: KGDV 191356Z AUTO 00000KT 10SM OVC065 M21/M24 A3050 RMK AO2 SLP406 T12061244 FZRANO
cycle: 14

Station Type Date Time Source
KGDV TAF 2020/01/19 12:24 UTC NOAA

TAF KGDV 191121Z 1912/2012 VRB03KT P6SM BKN070
FM191400 VRB05KT P6SM SCT070

Example: see airport list